createdAt,value
2019-02-17T00:01:00.280Z,18.40
2019-02-17T00:03:30.727Z,18.47
2019-02-17T00:06:01.210Z,17.70
2019-02-17T00:08:31.711Z,19.67
2019-02-17T00:11:09.688Z,19.10
2019-02-17T00:13:40.258Z,18.23
2019-02-17T00:16:10.771Z,18.80
2019-02-17T00:18:41.270Z,18.50
2019-02-17T00:21:11.883Z,16.57
2019-02-17T00:23:42.346Z,19.10
2019-02-17T00:26:12.724Z,18.30
2019-02-17T00:28:43.207Z,18.60
2019-02-17T00:31:13.810Z,18.93
2019-02-17T00:33:44.280Z,17.47
2019-02-17T00:36:14.792Z,18.67
2019-02-17T00:38:45.202Z,19.80
2019-02-17T00:41:15.711Z,18.07
2019-02-17T00:43:46.137Z,21.03
2019-02-17T00:46:17.474Z,19.73
2019-02-17T00:48:48.420Z,19.07
2019-02-17T00:51:19.030Z,20.57
2019-02-17T00:53:49.531Z,19.87
2019-02-17T00:56:19.965Z,20.30
2019-02-17T00:58:50.574Z,19.03
2019-02-17T01:01:21.261Z,18.23
2019-02-17T01:03:51.713Z,17.90
2019-02-17T01:06:22.291Z,18.20
2019-02-17T01:08:52.866Z,19.87
2019-02-17T01:11:23.450Z,19.17
2019-02-17T01:13:53.956Z,18.87
2019-02-17T01:16:25.025Z,18.83
2019-02-17T01:18:55.607Z,18.03
2019-02-17T01:21:26.190Z,18.17
2019-02-17T01:23:56.670Z,19.17
2019-02-17T01:26:27.262Z,18.57
2019-02-17T01:28:57.844Z,20.37
2019-02-17T01:31:28.399Z,17.03
2019-02-17T01:34:00.427Z,18.17
2019-02-17T01:36:30.846Z,17.20
2019-02-17T01:39:01.377Z,18.53
2019-02-17T01:41:31.923Z,18.07
2019-02-17T01:44:02.484Z,18.80
2019-02-17T01:46:33.942Z,18.87
2019-02-17T01:49:04.555Z,18.03
2019-02-17T01:51:34.987Z,17.57
2019-02-17T01:54:05.642Z,18.77
2019-02-17T01:56:36.229Z,17.53
2019-02-17T01:59:06.893Z,18.97
2019-02-17T02:01:39.157Z,18.53
2019-02-17T02:04:09.767Z,18.63
2019-02-17T02:06:40.303Z,16.80
2019-02-17T02:09:11.459Z,16.67
2019-02-17T02:11:42.001Z,17.23
2019-02-17T02:14:12.583Z,17.57
2019-02-17T02:16:43.251Z,17.47
2019-02-17T02:19:13.747Z,18.20
2019-02-17T02:21:44.367Z,17.37
2019-02-17T02:24:14.868Z,17.77
2019-02-17T02:26:45.276Z,17.10
2019-02-17T02:29:15.782Z,18.90
2019-02-17T02:31:46.354Z,18.13
2019-02-17T02:34:16.809Z,17.40
2019-02-17T02:36:47.438Z,18.97
2019-02-17T02:39:17.882Z,18.70
2019-02-17T02:41:48.263Z,17.27
2019-02-17T02:44:19.681Z,18.83
2019-02-17T02:46:50.931Z,15.93
2019-02-17T02:49:21.323Z,17.37
2019-02-17T02:51:51.813Z,15.93
2019-02-17T02:54:22.311Z,15.97
2019-02-17T02:56:52.822Z,17.87
2019-02-17T02:59:23.396Z,17.70
2019-02-17T03:01:53.841Z,17.60
2019-02-17T03:04:24.308Z,17.53
2019-02-17T03:06:56.779Z,17.13
2019-02-17T03:09:27.303Z,18.57
2019-02-17T03:11:57.742Z,17.20
2019-02-17T03:14:28.271Z,16.07
2019-02-17T03:17:00.628Z,16.43
2019-02-17T03:19:30.977Z,17.90
2019-02-17T03:22:01.561Z,16.27
2019-02-17T03:24:31.998Z,16.67
2019-02-17T03:27:02.614Z,16.37
2019-02-17T03:29:33.143Z,14.17
2019-02-17T03:32:03.830Z,16.10
2019-02-17T03:34:34.206Z,16.50
2019-02-17T03:37:04.651Z,14.93
2019-02-17T03:39:35.223Z,15.97
2019-02-17T03:42:06.008Z,15.43
2019-02-17T03:44:36.672Z,16.77
2019-02-17T03:47:07.820Z,16.03
2019-02-17T03:49:38.293Z,16.23
2019-02-17T03:52:08.768Z,15.13
2019-02-17T03:54:39.303Z,14.27
2019-02-17T03:57:09.778Z,15.30
2019-02-17T03:59:40.345Z,14.63
2019-02-17T04:02:10.902Z,15.63
2019-02-17T04:04:41.468Z,14.87
2019-02-17T04:07:11.924Z,15.93
2019-02-17T04:09:42.502Z,15.10
2019-02-17T04:12:13.060Z,14.07
2019-02-17T04:14:43.682Z,15.10
2019-02-17T04:17:14.201Z,13.97
2019-02-17T04:19:44.840Z,15.33
2019-02-17T04:22:15.420Z,15.03
2019-02-17T04:24:46.003Z,14.43
2019-02-17T04:27:16.543Z,13.50
2019-02-17T04:29:47.191Z,13.60
2019-02-17T04:32:17.703Z,13.53
2019-02-17T04:34:48.276Z,14.43
2019-02-17T04:37:18.874Z,14.47
2019-02-17T04:39:49.369Z,13.43
2019-02-17T04:42:19.845Z,13.10
2019-02-17T04:44:50.314Z,13.93
2019-02-17T04:47:21.696Z,13.83
2019-02-17T04:49:52.207Z,14.30
2019-02-17T04:52:22.666Z,13.97
2019-02-17T04:54:53.404Z,13.97
2019-02-17T04:57:23.877Z,14.47
2019-02-17T04:59:54.416Z,13.67
2019-02-17T05:02:25.092Z,13.17
2019-02-17T05:04:57.511Z,14.40
2019-02-17T05:07:27.967Z,13.20
2019-02-17T05:09:58.444Z,14.40
2019-02-17T05:12:28.932Z,13.00
2019-02-17T05:14:59.479Z,13.93
2019-02-17T05:17:30.075Z,14.17
2019-02-17T05:20:00.616Z,13.27
2019-02-17T05:22:31.675Z,13.17
2019-02-17T05:25:02.218Z,14.73
2019-02-17T05:27:32.755Z,14.27
2019-02-17T05:30:06.043Z,15.00
2019-02-17T05:32:35.706Z,13.43
2019-02-17T05:35:06.962Z,13.37
2019-02-17T05:37:37.486Z,14.90
2019-02-17T05:40:08.288Z,13.13
2019-02-17T05:42:38.812Z,12.93
2019-02-17T05:45:09.841Z,13.90
2019-02-17T05:47:41.006Z,12.37
2019-02-17T05:50:11.635Z,13.80
2019-02-17T05:52:42.090Z,12.93
2019-02-17T05:55:13.040Z,12.93
2019-02-17T05:57:43.464Z,13.40
2019-02-17T06:00:15.183Z,13.77
2019-02-17T06:02:45.651Z,13.33
2019-02-17T06:05:16.203Z,13.13
2019-02-17T06:07:46.843Z,12.27
2019-02-17T06:10:17.242Z,13.93
2019-02-17T06:12:47.744Z,13.40
2019-02-17T06:15:18.236Z,12.87
2019-02-17T06:17:48.812Z,13.90
2019-02-17T06:20:19.364Z,12.33
2019-02-17T06:22:49.881Z,12.33
2019-02-17T06:25:20.889Z,14.10
2019-02-17T06:27:51.464Z,14.00
2019-02-17T06:30:22.246Z,12.93
2019-02-17T06:32:52.814Z,13.80
2019-02-17T06:35:23.458Z,12.20
2019-02-17T06:37:53.951Z,13.23
2019-02-17T06:40:24.515Z,13.20
2019-02-17T06:42:55.226Z,12.43
2019-02-17T06:45:25.679Z,11.97
2019-02-17T06:47:56.971Z,13.70
2019-02-17T06:50:27.651Z,13.23
2019-02-17T06:52:58.039Z,13.73
2019-02-17T06:55:33.247Z,15.30
2019-02-17T06:58:03.810Z,14.40
2019-02-17T07:00:35.886Z,14.70
2019-02-17T07:03:07.496Z,15.90
2019-02-17T07:05:39.649Z,14.47
2019-02-17T07:08:11.151Z,14.40
2019-02-17T07:10:41.607Z,15.43
2019-02-17T07:13:12.091Z,14.33
2019-02-17T07:15:42.623Z,16.33
2019-02-17T07:18:13.092Z,16.90
2019-02-17T07:20:43.572Z,17.30
2019-02-17T07:23:15.330Z,16.70
2019-02-17T07:25:46.150Z,18.47
2019-02-17T07:28:16.511Z,18.07
2019-02-17T07:30:46.977Z,18.27
2019-02-17T07:33:17.462Z,17.13
2019-02-17T07:35:48.205Z,18.93
2019-02-17T07:38:18.829Z,18.77
2019-02-17T07:40:51.192Z,19.50
2019-02-17T07:43:21.707Z,18.90
2019-02-17T07:45:52.281Z,18.43
2019-02-17T07:48:23.573Z,16.63
2019-02-17T07:50:54.026Z,17.23
2019-02-17T07:53:24.559Z,16.43
2019-02-17T07:55:55.127Z,17.57
2019-02-17T07:58:25.883Z,16.53
2019-02-17T08:00:56.480Z,15.90
2019-02-17T08:03:27.036Z,16.43
2019-02-17T08:05:57.637Z,15.50
2019-02-17T08:08:28.195Z,17.17
2019-02-17T08:11:03.995Z,15.63
2019-02-17T08:13:31.044Z,16.13
2019-02-17T08:16:02.924Z,17.23
2019-02-17T08:18:33.440Z,16.07
2019-02-17T08:21:03.892Z,16.27
2019-02-17T08:23:34.388Z,16.03
2019-02-17T08:26:05.150Z,15.50
2019-02-17T08:28:35.564Z,15.07
2019-02-17T08:31:06.042Z,15.10
2019-02-17T08:33:36.599Z,15.03
2019-02-17T08:36:07.068Z,16.07
2019-02-17T08:38:37.668Z,15.33
2019-02-17T08:41:11.432Z,16.37
2019-02-17T08:43:41.950Z,14.87
2019-02-17T08:46:12.405Z,15.43
2019-02-17T08:48:43.693Z,15.40
2019-02-17T08:51:14.309Z,16.50
2019-02-17T08:53:44.919Z,16.97
2019-02-17T08:56:15.406Z,16.70
2019-02-17T08:58:45.870Z,16.00
2019-02-17T09:01:16.527Z,16.07
2019-02-17T09:03:47.069Z,17.47
2019-02-17T09:06:17.834Z,16.57
2019-02-17T09:08:48.233Z,14.93
2019-02-17T09:11:19.308Z,16.33
2019-02-17T09:13:49.870Z,15.93
2019-02-17T09:16:20.420Z,15.43
2019-02-17T09:18:50.881Z,15.70
2019-02-17T09:21:21.422Z,14.33
2019-02-17T09:23:51.995Z,16.17
2019-02-17T09:26:22.547Z,16.13
2019-02-17T09:28:53.177Z,15.80
2019-02-17T09:31:23.718Z,15.40
2019-02-17T09:33:54.354Z,14.73
2019-02-17T09:36:25.083Z,14.57
2019-02-17T09:38:56.383Z,14.03
2019-02-17T09:41:26.925Z,15.00
2019-02-17T09:43:57.355Z,14.83
2019-02-17T09:46:28.392Z,14.67
2019-02-17T09:48:59.721Z,15.67
2019-02-17T09:51:30.448Z,15.63
2019-02-17T09:54:01.680Z,15.93
2019-02-17T09:56:32.620Z,17.10
2019-02-17T09:59:04.012Z,14.87
2019-02-17T10:01:34.683Z,15.20
2019-02-17T10:04:06.048Z,14.87
2019-02-17T10:06:36.536Z,13.57
2019-02-17T10:09:08.268Z,13.87
2019-02-17T10:11:39.808Z,13.97
2019-02-17T10:14:10.363Z,13.30
2019-02-17T10:16:42.062Z,13.23
2019-02-17T10:19:12.500Z,14.17
2019-02-17T10:21:43.977Z,13.27
2019-02-17T10:24:15.218Z,13.67
2019-02-17T10:26:45.703Z,13.23
2019-02-17T10:29:16.095Z,13.50
2019-02-17T10:31:46.993Z,13.77
2019-02-17T10:34:17.503Z,12.83
2019-02-17T10:36:48.033Z,12.83
2019-02-17T10:39:18.544Z,13.20
2019-02-17T10:41:49.137Z,11.87
2019-02-17T10:44:19.848Z,11.50
2019-02-17T10:46:50.410Z,11.23
2019-02-17T10:49:20.923Z,10.53
2019-02-17T10:51:51.570Z,9.67
2019-02-17T10:54:23.153Z,10.00
2019-02-17T10:56:53.944Z,11.10
2019-02-17T10:59:24.495Z,9.87
2019-02-17T11:01:55.032Z,10.57
2019-02-17T11:04:25.671Z,10.07
2019-02-17T11:06:56.232Z,9.67
2019-02-17T11:09:26.760Z,10.17
2019-02-17T11:11:57.330Z,10.27
2019-02-17T11:14:28.001Z,11.30
2019-02-17T11:16:59.333Z,11.63
2019-02-17T11:19:29.964Z,11.40
2019-02-17T11:22:00.577Z,11.73
2019-02-17T11:24:31.194Z,11.60
2019-02-17T11:27:03.393Z,12.20
2019-02-17T11:29:34.056Z,11.83
2019-02-17T11:32:04.677Z,12.43
2019-02-17T11:34:35.158Z,12.60
2019-02-17T11:37:06.115Z,12.80
2019-02-17T11:39:36.571Z,12.80
2019-02-17T11:42:07.197Z,12.50
2019-02-17T11:44:40.765Z,14.23
2019-02-17T11:47:11.285Z,12.60
2019-02-17T11:49:42.584Z,13.27
2019-02-17T11:52:13.166Z,13.87
2019-02-17T11:54:43.746Z,13.57
2019-02-17T11:57:14.253Z,13.83
2019-02-17T11:59:44.842Z,14.20
2019-02-17T12:02:24.645Z,15.30
2019-02-17T12:04:48.014Z,13.83
2019-02-17T12:07:18.785Z,13.17
2019-02-17T12:09:49.317Z,13.30
2019-02-17T12:12:20.756Z,11.73
2019-02-17T12:14:52.786Z,11.40
2019-02-17T12:17:23.482Z,11.90
2019-02-17T12:19:55.532Z,11.87
2019-02-17T12:22:27.828Z,12.27
2019-02-17T12:25:00.062Z,12.77
2019-02-17T12:27:38.070Z,13.47
2019-02-17T12:30:10.830Z,13.20
2019-02-17T12:32:41.331Z,12.10
2019-02-17T12:35:11.938Z,12.27
2019-02-17T12:37:42.554Z,12.23
2019-02-17T12:40:13.179Z,12.17
2019-02-17T12:42:43.722Z,10.70
2019-02-17T12:45:18.139Z,11.93
2019-02-17T12:47:55.438Z,11.23
2019-02-17T12:50:20.269Z,10.53
2019-02-17T12:52:50.940Z,10.93
2019-02-17T12:55:21.415Z,11.83
2019-02-17T12:57:51.939Z,12.13
2019-02-17T13:00:22.415Z,11.33
2019-02-17T13:02:52.884Z,11.30
2019-02-17T13:05:24.352Z,12.03
2019-02-17T13:07:54.936Z,12.03
2019-02-17T13:10:25.475Z,12.97
2019-02-17T13:12:56.083Z,11.73
2019-02-17T13:15:26.582Z,11.13
2019-02-17T13:17:57.232Z,11.83
2019-02-17T13:20:27.826Z,12.27
2019-02-17T13:22:58.475Z,11.73
2019-02-17T13:25:28.953Z,12.03
2019-02-17T13:27:59.442Z,12.10
2019-02-17T13:30:29.957Z,12.33
2019-02-17T13:33:00.590Z,11.70
2019-02-17T13:35:31.074Z,12.13
2019-02-17T13:38:01.555Z,11.00
2019-02-17T13:40:32.073Z,10.97
2019-02-17T13:43:02.665Z,9.70
2019-02-17T13:45:33.245Z,9.83
2019-02-17T13:48:03.902Z,9.33
2019-02-17T13:50:35.273Z,10.23
2019-02-17T13:53:11.742Z,10.90
2019-02-17T13:55:38.925Z,8.67
2019-02-17T13:58:09.558Z,8.13
2019-02-17T14:00:40.146Z,8.83
2019-02-17T14:03:10.726Z,7.93
2019-02-17T14:05:41.305Z,9.17
2019-02-17T14:08:12.716Z,9.93
2019-02-17T14:10:43.207Z,10.03
2019-02-17T14:13:13.722Z,10.50
2019-02-17T14:15:44.264Z,10.40
2019-02-17T14:18:14.749Z,10.83
2019-02-17T14:20:45.313Z,10.10
2019-02-17T14:23:16.120Z,8.90
2019-02-17T14:25:46.647Z,10.17
2019-02-17T14:28:18.016Z,9.30
2019-02-17T14:30:48.482Z,10.27
2019-02-17T14:33:19.168Z,11.63
2019-02-17T14:35:49.718Z,11.63
2019-02-17T14:38:21.348Z,11.63
2019-02-17T14:40:52.452Z,11.27
2019-02-17T14:43:23.126Z,10.97
2019-02-17T14:45:53.579Z,10.40
2019-02-17T14:48:24.224Z,11.20
2019-02-17T14:50:56.473Z,11.70
2019-02-17T14:53:27.022Z,11.43
2019-02-17T14:55:57.687Z,11.17
2019-02-17T14:58:28.716Z,11.77
2019-02-17T15:00:59.325Z,10.90
2019-02-17T15:03:29.799Z,11.73
2019-02-17T15:06:00.403Z,11.97
2019-02-17T15:08:31.465Z,11.60
2019-02-17T15:11:02.461Z,11.67
2019-02-17T15:13:33.548Z,13.23
2019-02-17T15:16:04.811Z,10.53
2019-02-17T15:18:35.341Z,10.53
2019-02-17T15:21:05.914Z,11.53
2019-02-17T15:23:36.507Z,11.50
2019-02-17T15:26:07.605Z,11.13
2019-02-17T15:28:38.535Z,12.23
2019-02-17T15:31:09.180Z,12.03
2019-02-17T15:33:39.579Z,11.80
2019-02-17T15:36:10.627Z,11.33
2019-02-17T15:38:41.948Z,10.73
2019-02-17T15:41:12.413Z,11.10
2019-02-17T15:43:43.034Z,11.63
2019-02-17T15:46:14.111Z,11.77
2019-02-17T15:48:44.748Z,10.77
2019-02-17T15:51:16.184Z,11.73
2019-02-17T15:53:46.814Z,11.67
2019-02-17T15:56:17.346Z,10.53
2019-02-17T15:58:48.004Z,12.30
2019-02-17T16:01:18.523Z,11.80
2019-02-17T16:03:49.141Z,13.10
2019-02-17T16:06:19.696Z,14.33
2019-02-17T16:08:52.188Z,16.53
2019-02-17T16:11:22.657Z,18.27
2019-02-17T16:13:54.193Z,16.73
2019-02-17T16:16:24.772Z,17.80
2019-02-17T16:18:55.280Z,17.80
2019-02-17T16:21:25.792Z,19.40
2019-02-17T16:23:56.449Z,18.97
2019-02-17T16:26:27.052Z,19.67
2019-02-17T16:28:57.634Z,20.00
2019-02-17T16:31:28.316Z,19.97
2019-02-17T16:34:01.065Z,21.17
2019-02-17T16:36:31.613Z,23.57
2019-02-17T16:39:02.186Z,21.97
2019-02-17T16:41:34.304Z,17.37
2019-02-17T16:44:04.873Z,21.43
2019-02-17T16:46:35.337Z,19.53
2019-02-17T16:49:05.927Z,21.97
2019-02-17T16:51:37.268Z,19.70
2019-02-17T16:54:07.922Z,18.93
2019-02-17T16:56:38.432Z,16.67
2019-02-17T16:59:09.088Z,15.13
2019-02-17T17:01:39.632Z,14.87
2019-02-17T17:04:11.011Z,15.90
2019-02-17T17:06:41.559Z,17.47
2019-02-17T17:09:12.211Z,16.40
2019-02-17T17:11:42.807Z,14.70
2019-02-17T17:17:13.710Z,14.00
2019-02-17T17:19:44.268Z,14.60
2019-02-17T17:22:15.131Z,16.10
2019-02-17T17:24:45.974Z,17.23
2019-02-17T17:27:16.540Z,17.17
2019-02-17T17:29:47.245Z,17.40
2019-02-17T17:32:17.845Z,17.67
2019-02-17T17:34:58.393Z,18.10
2019-02-17T17:37:20.716Z,18.93
2019-02-17T17:39:51.507Z,21.50
2019-02-17T17:42:22.126Z,19.93
2019-02-17T17:44:53.308Z,20.63
2019-02-17T17:47:23.921Z,22.27
2019-02-17T17:49:54.594Z,22.63
2019-02-17T17:52:25.834Z,21.67
2019-02-17T17:54:56.310Z,20.93
2019-02-17T17:57:27.122Z,21.50
2019-02-17T17:59:57.817Z,20.77
2019-02-17T18:02:28.384Z,21.20
2019-02-17T18:05:08.451Z,22.63
2019-02-17T18:07:30.970Z,24.73
2019-02-17T18:10:01.442Z,24.30
2019-02-17T18:12:31.897Z,23.47
2019-02-17T18:15:12.041Z,24.03
2019-02-17T18:17:53.504Z,24.63
2019-02-17T18:20:16.483Z,23.60
2019-02-17T18:22:47.100Z,24.60
2019-02-17T18:25:17.832Z,22.47
2019-02-17T18:27:51.637Z,21.87
2019-02-17T18:30:22.568Z,20.67
2019-02-17T18:32:53.047Z,19.77
2019-02-17T18:35:23.588Z,20.07
2019-02-17T18:37:54.944Z,19.70
2019-02-17T18:40:25.489Z,21.00
2019-02-17T18:42:55.968Z,20.33
2019-02-17T18:45:28.254Z,19.77
2019-02-17T18:47:58.705Z,18.80
2019-02-17T18:53:06.593Z,19.60
2019-02-17T18:55:37.032Z,20.00
2019-02-17T18:58:07.460Z,18.57
2019-02-17T19:00:38.012Z,17.70
2019-02-17T19:03:08.592Z,18.77
2019-02-17T19:05:39.062Z,18.47
2019-02-17T19:08:09.602Z,17.97
2019-02-17T19:10:40.142Z,18.00
2019-02-17T19:13:10.640Z,19.17
2019-02-17T19:15:41.250Z,20.40
2019-02-17T19:18:11.739Z,22.30
2019-02-17T19:20:42.382Z,21.97
2019-02-17T19:23:12.841Z,20.77
2019-02-17T19:25:44.641Z,21.20
2019-02-17T19:28:16.336Z,21.50
2019-02-17T19:30:46.909Z,21.17
2019-02-17T19:33:17.459Z,21.20
2019-02-17T19:35:47.913Z,20.63
2019-02-17T19:38:18.495Z,19.67
2019-02-17T19:40:48.972Z,19.33
2019-02-17T19:43:19.569Z,18.30
2019-02-17T19:45:50.090Z,18.00
2019-02-17T19:48:21.551Z,16.20
2019-02-17T19:50:51.955Z,16.50
2019-02-17T19:53:23.316Z,15.77
2019-02-17T19:55:53.887Z,17.30
2019-02-17T19:58:24.274Z,17.90
2019-02-17T20:00:56.367Z,17.47
2019-02-17T20:03:31.222Z,18.30
2019-02-17T20:06:03.358Z,17.23
2019-02-17T20:08:33.909Z,17.13
2019-02-17T20:11:04.605Z,18.10
2019-02-17T20:13:35.260Z,16.87
2019-02-17T20:16:05.880Z,18.17
2019-02-17T20:18:36.422Z,17.27
2019-02-17T20:21:07.034Z,17.90
2019-02-17T20:23:37.495Z,17.50
2019-02-17T20:26:09.012Z,16.87
2019-02-17T20:28:43.287Z,17.37
2019-02-17T20:31:11.732Z,16.67
2019-02-17T20:33:42.399Z,18.40
2019-02-17T20:36:12.938Z,19.53
2019-02-17T20:38:43.513Z,20.20
2019-02-17T20:41:14.050Z,18.57
2019-02-17T20:43:44.697Z,20.57
2019-02-17T20:46:15.231Z,22.87
2019-02-17T20:48:45.922Z,23.40
2019-02-17T20:51:16.406Z,24.60
2019-02-17T20:53:47.806Z,25.13
2019-02-17T20:56:18.386Z,24.10
2019-02-17T20:58:49.065Z,27.67
2019-02-17T21:01:19.607Z,23.60
2019-02-17T21:03:50.127Z,24.60
2019-02-17T21:06:20.612Z,24.03
2019-02-17T21:08:51.035Z,22.27
2019-02-17T21:11:21.481Z,21.83
2019-02-17T21:13:52.030Z,23.83
2019-02-17T21:16:22.545Z,21.93
2019-02-17T21:18:53.155Z,22.57
2019-02-17T21:21:23.701Z,22.13
2019-02-17T21:23:54.262Z,21.40
2019-02-17T21:26:26.444Z,21.70
2019-02-17T21:28:57.152Z,22.00
2019-02-17T21:31:27.760Z,21.23
2019-02-17T21:33:58.409Z,21.50
2019-02-17T21:36:29.995Z,21.73
2019-02-17T21:39:00.382Z,22.33
2019-02-17T21:41:30.983Z,22.37
2019-02-17T21:44:01.552Z,22.73
2019-02-17T21:46:32.153Z,22.10
2019-02-17T21:49:02.734Z,23.17
2019-02-17T21:51:33.393Z,22.47
2019-02-17T21:54:05.009Z,23.37
2019-02-17T21:56:35.573Z,27.73
2019-02-17T21:59:06.064Z,24.70
2019-02-17T22:01:36.478Z,26.30
2019-02-17T22:04:07.083Z,23.33
2019-02-17T22:06:37.610Z,25.47
2019-02-17T22:09:08.624Z,23.77
2019-02-17T22:11:39.073Z,23.17
2019-02-17T22:14:09.515Z,23.30
2019-02-17T22:16:39.990Z,24.27
2019-02-17T22:19:11.127Z,22.70
2019-02-17T22:21:41.609Z,21.97
2019-02-17T22:24:13.958Z,21.13
2019-02-17T22:26:44.395Z,22.00
2019-02-17T22:29:14.787Z,21.37
2019-02-17T22:31:45.152Z,19.10
2019-02-17T22:34:15.654Z,19.77
2019-02-17T22:36:46.136Z,21.40
2019-02-17T22:39:16.677Z,20.50
2019-02-17T22:41:47.061Z,22.03
2019-02-17T22:44:17.604Z,20.60
2019-02-17T22:46:48.146Z,19.87
2019-02-17T22:49:18.761Z,18.60
2019-02-17T22:51:49.302Z,20.37
2019-02-17T22:54:20.572Z,19.30
2019-02-17T22:56:51.120Z,19.57
2019-02-17T22:59:21.585Z,18.87
2019-02-17T23:01:52.327Z,20.43
2019-02-17T23:04:23.003Z,21.30
2019-02-17T23:06:54.534Z,19.07
2019-02-17T23:09:25.242Z,20.73
2019-02-17T23:11:55.924Z,19.33
2019-02-17T23:14:26.357Z,19.63
2019-02-17T23:16:56.877Z,18.23
2019-02-17T23:19:27.434Z,17.83
2019-02-17T23:21:58.162Z,18.30
2019-02-17T23:24:29.363Z,18.00
2019-02-17T23:26:59.974Z,16.87
2019-02-17T23:29:30.537Z,18.83
2019-02-17T23:32:01.125Z,20.03
2019-02-17T23:34:32.163Z,18.43
2019-02-17T23:37:04.232Z,17.60
2019-02-17T23:39:35.055Z,19.00
2019-02-17T23:42:05.644Z,19.20
2019-02-17T23:44:36.200Z,20.17
2019-02-17T23:47:06.825Z,20.30
2019-02-17T23:49:37.237Z,20.70
2019-02-17T23:52:07.839Z,18.10
2019-02-17T23:54:39.958Z,20.20
2019-02-17T23:57:11.568Z,20.83
2019-02-17T23:59:42.060Z,18.77
